sensor_id;sensor_type;location;lat;lon;timestamp;pressure;altitude;pressure_sealevel;temperature;humidity
36258;BME280;22294;52.044;4.582;2022-10-03T00:00:15;77486.94;;;-144.37;82.66
36258;BME280;22294;52.044;4.582;2022-10-03T00:05:37;77486.94;;;-144.37;82.60
36258;BME280;22294;52.044;4.582;2022-10-03T00:15:53;77499.22;;;-144.37;82.18
36258;BME280;22294;52.044;4.582;2022-10-03T00:21:33;77513.53;;;-144.37;82.45
36258;BME280;22294;52.044;4.582;2022-10-03T00:26:51;77519.66;;;-144.37;82.99
36258;BME280;22294;52.044;4.582;2022-10-03T00:29:30;77534.00;;;-144.37;82.66
36258;BME280;22294;52.044;4.582;2022-10-03T00:32:28;77534.00;;;-144.37;82.69
36258;BME280;22294;52.044;4.582;2022-10-03T00:38:07;77527.84;;;-144.37;82.83
36258;BME280;22294;52.044;4.582;2022-10-03T00:58:43;77544.22;;;-144.37;82.90
36258;BME280;22294;52.044;4.582;2022-10-03T01:00:48;77540.13;;;-144.37;82.95
36258;BME280;22294;52.044;4.582;2022-10-03T01:03:34;77544.22;;;-144.37;82.73
36258;BME280;22294;52.044;4.582;2022-10-03T01:06:28;77552.41;;;-144.37;82.66
36258;BME280;22294;52.044;4.582;2022-10-03T01:11:44;77538.09;;;-144.37;82.59
36258;BME280;22294;52.044;4.582;2022-10-03T01:14:43;77542.19;;;-144.37;82.42
36258;BME280;22294;52.044;4.582;2022-10-03T01:17:22;77542.19;;;-144.37;82.65
36258;BME280;22294;52.044;4.582;2022-10-03T01:31:19;77548.31;;;-144.37;83.29
36258;BME280;22294;52.044;4.582;2022-10-03T01:34:06;77536.03;;;-144.37;83.44
36258;BME280;22294;52.044;4.582;2022-10-03T01:39:25;77534.00;;;-144.37;83.40
36258;BME280;22294;52.044;4.582;2022-10-03T01:42:04;77527.84;;;-144.37;83.17
36258;BME280;22294;52.044;4.582;2022-10-03T01:49:47;77529.91;;;-144.37;82.65
36258;BME280;22294;52.044;4.582;2022-10-03T01:52:32;77534.00;;;-144.37;82.86
36258;BME280;22294;52.044;4.582;2022-10-03T01:57:41;77538.09;;;-144.37;82.90
36258;BME280;22294;52.044;4.582;2022-10-03T02:00:15;77538.09;;;-144.37;83.20
36258;BME280;22294;52.044;4.582;2022-10-03T02:05:21;77540.13;;;-144.37;83.57
36258;BME280;22294;52.044;4.582;2022-10-03T02:08:02;77542.19;;;-144.37;83.52
36258;BME280;22294;52.044;4.582;2022-10-03T02:11:01;77552.41;;;-144.37;83.58
36258;BME280;22294;52.044;4.582;2022-10-03T02:13:47;77548.31;;;-144.37;83.81
36258;BME280;22294;52.044;4.582;2022-10-03T02:16:17;77550.38;;;-144.37;83.65
36258;BME280;22294;52.044;4.582;2022-10-03T02:18:54;77538.09;;;-144.37;83.54
36258;BME280;22294;52.044;4.582;2022-10-03T02:21:28;77538.09;;;-144.37;83.18
36258;BME280;22294;52.044;4.582;2022-10-03T02:24:21;77540.13;;;-144.37;83.37
36258;BME280;22294;52.044;4.582;2022-10-03T02:27:20;77544.22;;;-144.37;83.27
36258;BME280;22294;52.044;4.582;2022-10-03T02:58:27;77607.66;;;-144.37;84.42
36258;BME280;22294;52.044;4.582;2022-10-03T03:07:01;77615.84;;;-144.37;84.84
36258;BME280;22294;52.044;4.582;2022-10-03T03:18:43;77619.94;;;-144.37;84.87
36258;BME280;22294;52.044;4.582;2022-10-03T03:21:27;77636.28;;;-144.37;84.95
36258;BME280;22294;52.044;4.582;2022-10-03T03:29:26;77632.19;;;-144.37;85.27
36258;BME280;22294;52.044;4.582;2022-10-03T03:32:21;77634.25;;;-144.37;85.22
36258;BME280;22294;52.044;4.582;2022-10-03T03:37:54;77644.47;;;-144.37;85.19
36258;BME280;22294;52.044;4.582;2022-10-03T03:43:09;77660.84;;;-144.37;84.75
36258;BME280;22294;52.044;4.582;2022-10-03T03:48:58;77658.78;;;-144.37;85.26
36258;BME280;22294;52.044;4.582;2022-10-03T03:51:41;77664.94;;;-144.37;85.03
36258;BME280;22294;52.044;4.582;2022-10-03T04:02:20;77664.94;;;-144.37;86.66
36258;BME280;22294;52.044;4.582;2022-10-03T04:10:39;77638.34;;;-144.37;87.01
36258;BME280;22294;52.044;4.582;2022-10-03T04:13:27;77630.16;;;-144.37;87.09
36258;BME280;22294;52.044;4.582;2022-10-03T04:21:45;77619.94;;;-144.37;87.49
36258;BME280;22294;52.044;4.582;2022-10-03T04:24:42;77609.69;;;-144.37;87.66
36258;BME280;22294;52.044;4.582;2022-10-03T04:33:05;77589.22;;;-144.37;87.22
36258;BME280;22294;52.044;4.582;2022-10-03T04:41:51;77589.22;;;-144.37;87.60
36258;BME280;22294;52.044;4.582;2022-10-03T04:44:46;77587.19;;;-144.37;87.48
36258;BME280;22294;52.044;4.582;2022-10-03T04:47:30;77576.97;;;-144.37;87.00
36258;BME280;22294;52.044;4.582;2022-10-03T04:52:51;77576.97;;;-144.37;86.76
36258;BME280;22294;52.044;4.582;2022-10-03T04:55:32;77579.00;;;-144.37;86.73
36258;BME280;22294;52.044;4.582;2022-10-03T05:04:02;77587.19;;;-144.37;87.45
36258;BME280;22294;52.044;4.582;2022-10-03T05:06:50;77583.09;;;-144.37;88.08
36258;BME280;22294;52.044;4.582;2022-10-03T05:09:21;77585.13;;;-144.37;88.20
36258;BME280;22294;52.044;4.582;2022-10-03T05:19:59;77572.88;;;-144.37;88.43
36258;BME280;22294;52.044;4.582;2022-10-03T05:25:15;77554.47;;;-144.37;88.61
36258;BME280;22294;52.044;4.582;2022-10-03T05:27:55;77556.50;;;-144.37;88.06
36258;BME280;22294;52.044;4.582;2022-10-03T05:33:05;77546.28;;;-144.37;88.58
36258;BME280;22294;52.044;4.582;2022-10-03T05:41:33;77538.09;;;-144.37;89.80
36258;BME280;22294;52.044;4.582;2022-10-03T05:44:03;77531.94;;;-144.37;89.71
36258;BME280;22294;52.044;4.582;2022-10-03T05:46:56;77525.81;;;-144.37;89.20
36258;BME280;22294;52.044;4.582;2022-10-03T05:55:01;77515.59;;;-144.37;88.34
36258;BME280;22294;52.044;4.582;2022-10-03T06:06:11;77503.31;;;-144.37;89.50
36258;BME280;22294;52.044;4.582;2022-10-03T06:11:46;77499.22;;;-144.37;90.11
36258;BME280;22294;52.044;4.582;2022-10-03T06:19:48;77497.16;;;-144.37;90.56
36258;BME280;22294;52.044;4.582;2022-10-03T06:25:13;77497.16;;;-144.37;89.89
36258;BME280;22294;52.044;4.582;2022-10-03T06:28:14;77505.34;;;-144.37;89.86
36258;BME280;22294;52.044;4.582;2022-10-03T06:37:03;77493.06;;;-144.37;89.63
36258;BME280;22294;52.044;4.582;2022-10-03T06:39:54;77495.13;;;-144.37;89.48
36258;BME280;22294;52.044;4.582;2022-10-03T06:45:38;77484.91;;;-144.37;89.94
36258;BME280;22294;52.044;4.582;2022-10-03T06:54:37;77464.44;;;-144.37;89.99
36258;BME280;22294;52.044;4.582;2022-10-03T06:57:27;77450.13;;;-144.37;89.72
36258;BME280;22294;52.044;4.582;2022-10-03T07:00:22;77450.13;;;-144.37;89.49
36258;BME280;22294;52.044;4.582;2022-10-03T07:03:40;77433.75;;;-144.37;88.87
36258;BME280;22294;52.044;4.582;2022-10-03T07:18:11;77421.47;;;-144.37;88.82
36258;BME280;22294;52.044;4.582;2022-10-03T07:24:27;77415.34;;;-144.37;88.86
36258;BME280;22294;52.044;4.582;2022-10-03T07:27:43;77405.09;;;-144.37;88.91
36258;BME280;22294;52.044;4.582;2022-10-03T07:30:22;77396.94;;;-144.37;88.73
36258;BME280;22294;52.044;4.582;2022-10-03T07:45:18;77376.47;;;-144.37;89.59
36258;BME280;22294;52.044;4.582;2022-10-03T07:50:31;77362.16;;;-144.37;88.64
36258;BME280;22294;52.044;4.582;2022-10-03T08:04:42;77311.00;;;-144.37;87.92
36258;BME280;22294;52.044;4.582;2022-10-03T08:07:35;77298.72;;;-144.37;87.52
36258;BME280;22294;52.044;4.582;2022-10-03T08:13:04;77282.38;;;-144.37;87.28
36258;BME280;22294;52.044;4.582;2022-10-03T08:22:57;77257.81;;;-144.37;86.60
36258;BME280;22294;52.044;4.582;2022-10-03T08:25:48;77249.63;;;-144.37;85.84
36258;BME280;22294;52.044;4.582;2022-10-03T08:31:30;77231.22;;;-144.37;84.60
36258;BME280;22294;52.044;4.582;2022-10-03T08:42:55;77204.63;;;-144.37;82.75
36258;BME280;22294;52.044;4.582;2022-10-03T08:49:16;77173.94;;;-144.37;82.34
36258;BME280;22294;52.044;4.582;2022-10-03T08:54:25;77128.94;;;-144.37;81.22
36258;BME280;22294;52.044;4.582;2022-10-03T09:00:18;77096.22;;;-144.37;80.77
36258;BME280;22294;52.044;4.582;2022-10-03T09:02:57;77092.13;;;-144.37;80.59
36258;BME280;22294;52.044;4.582;2022-10-03T09:14:03;77065.53;;;-144.37;79.20
36258;BME280;22294;52.044;4.582;2022-10-03T09:16:49;77055.28;;;-144.37;77.34
36258;BME280;22294;52.044;4.582;2022-10-03T09:19:28;77040.97;;;-144.37;77.20
36258;BME280;22294;52.044;4.582;2022-10-03T09:36:00;77016.44;;;-144.37;75.43
36258;BME280;22294;52.044;4.582;2022-10-03T09:50:07;76989.84;;;-144.37;75.00
36258;BME280;22294;52.044;4.582;2022-10-03T10:04:40;77008.25;;;-144.37;75.76
36258;BME280;22294;52.044;4.582;2022-10-03T10:07:00;77014.38;;;-144.37;76.25
36258;BME280;22294;52.044;4.582;2022-10-03T10:20:22;77022.56;;;-144.37;77.68
36258;BME280;22294;52.044;4.582;2022-10-03T10:23:09;77022.56;;;-144.37;77.74
36258;BME280;22294;52.044;4.582;2022-10-03T10:54:05;76991.88;;;-144.37;76.33
36258;BME280;22294;52.044;4.582;2022-10-03T10:56:47;76983.69;;;-144.37;75.77
36258;BME280;22294;52.044;4.582;2022-10-03T10:59:59;76987.78;;;-144.37;76.70
36258;BME280;22294;52.044;4.582;2022-10-03T11:11:09;76985.75;;;-144.37;75.83
36258;BME280;22294;52.044;4.582;2022-10-03T11:16:27;76983.69;;;-144.37;75.16
36258;BME280;22294;52.044;4.582;2022-10-03T11:19:42;76993.94;;;-144.37;74.58
36258;BME280;22294;52.044;4.582;2022-10-03T11:22:24;76993.94;;;-144.37;74.43
36258;BME280;22294;52.044;4.582;2022-10-03T11:33:39;77006.19;;;-144.37;72.96
36258;BME280;22294;52.044;4.582;2022-10-03T11:38:53;76981.66;;;-144.37;72.52
36258;BME280;22294;52.044;4.582;2022-10-03T11:42:01;76981.66;;;-144.37;72.74
36258;BME280;22294;52.044;4.582;2022-10-03T11:44:33;76983.69;;;-144.37;70.39
36258;BME280;22294;52.044;4.582;2022-10-03T11:56:09;76983.69;;;-144.37;70.16
36258;BME280;22294;52.044;4.582;2022-10-03T12:01:26;76993.94;;;-144.37;71.21
36258;BME280;22294;52.044;4.582;2022-10-03T12:04:22;76991.88;;;-144.37;71.19
36258;BME280;22294;52.044;4.582;2022-10-03T12:07:14;76989.84;;;-144.37;71.16
36258;BME280;22294;52.044;4.582;2022-10-03T12:10:34;77000.06;;;-144.37;71.94
36258;BME280;22294;52.044;4.582;2022-10-03T12:13:07;77004.16;;;-144.37;71.98
36258;BME280;22294;52.044;4.582;2022-10-03T12:15:49;77004.16;;;-144.37;72.38
36258;BME280;22294;52.044;4.582;2022-10-03T12:18:21;76998.00;;;-144.37;73.07
36258;BME280;22294;52.044;4.582;2022-10-03T12:21:09;76998.00;;;-144.37;72.64
36258;BME280;22294;52.044;4.582;2022-10-03T12:29:24;77012.34;;;-144.37;72.34
36258;BME280;22294;52.044;4.582;2022-10-03T12:31:54;77010.28;;;-144.37;72.74
36258;BME280;22294;52.044;4.582;2022-10-03T12:34:30;77010.28;;;-144.37;72.93
36258;BME280;22294;52.044;4.582;2022-10-03T12:40:01;77004.16;;;-144.37;73.22
36258;BME280;22294;52.044;4.582;2022-10-03T12:42:32;77002.09;;;-144.37;73.98
36258;BME280;22294;52.044;4.582;2022-10-03T12:47:41;76989.84;;;-144.37;74.28
36258;BME280;22294;52.044;4.582;2022-10-03T12:53:23;76983.69;;;-144.37;73.58
36258;BME280;22294;52.044;4.582;2022-10-03T12:59:01;76973.47;;;-144.37;72.72
36258;BME280;22294;52.044;4.582;2022-10-03T13:04:50;76971.44;;;-144.37;70.84
36258;BME280;22294;52.044;4.582;2022-10-03T13:10:54;76967.34;;;-144.37;70.29
36258;BME280;22294;52.044;4.582;2022-10-03T13:21:08;76950.97;;;-144.37;71.27
36258;BME280;22294;52.044;4.582;2022-10-03T13:23:44;76955.06;;;-144.37;71.13
36258;BME280;22294;52.044;4.582;2022-10-03T13:26:49;76965.28;;;-144.37;71.58
36258;BME280;22294;52.044;4.582;2022-10-03T13:34:28;76969.38;;;-144.37;70.89
36258;BME280;22294;52.044;4.582;2022-10-03T13:37:10;76961.19;;;-144.37;70.67
36258;BME280;22294;52.044;4.582;2022-10-03T13:40:07;76959.16;;;-144.37;71.44
36258;BME280;22294;52.044;4.582;2022-10-03T13:42:42;76961.19;;;-144.37;72.12
36258;BME280;22294;52.044;4.582;2022-10-03T13:45:22;76959.16;;;-144.37;71.74
36258;BME280;22294;52.044;4.582;2022-10-03T13:48:00;76957.09;;;-144.37;71.55
36258;BME280;22294;52.044;4.582;2022-10-03T13:51:21;76953.00;;;-144.37;71.09
36258;BME280;22294;52.044;4.582;2022-10-03T13:54:07;76959.16;;;-144.37;70.95
36258;BME280;22294;52.044;4.582;2022-10-03T13:56:44;76944.84;;;-144.37;71.30
36258;BME280;22294;52.044;4.582;2022-10-03T13:59:28;76942.78;;;-144.37;71.91
36258;BME280;22294;52.044;4.582;2022-10-03T14:21:25;76893.69;;;-144.37;70.28
36258;BME280;22294;52.044;4.582;2022-10-03T14:24:02;76887.56;;;-144.37;70.41
36258;BME280;22294;52.044;4.582;2022-10-03T14:27:09;76875.28;;;-144.37;70.12
36258;BME280;22294;52.044;4.582;2022-10-03T14:30:28;76869.16;;;-144.37;68.52
36258;BME280;22294;52.044;4.582;2022-10-03T14:35:29;76856.88;;;-144.37;67.95
36258;BME280;22294;52.044;4.582;2022-10-03T14:40:47;76842.56;;;-144.37;68.04
36258;BME280;22294;52.044;4.582;2022-10-03T14:43:37;76836.41;;;-144.37;67.79
36258;BME280;22294;52.044;4.582;2022-10-03T14:46:08;76840.50;;;-144.37;68.10
36258;BME280;22294;52.044;4.582;2022-10-03T14:48:40;76822.09;;;-144.37;68.59
36258;BME280;22294;52.044;4.582;2022-10-03T14:51:22;76818.00;;;-144.37;67.26
36258;BME280;22294;52.044;4.582;2022-10-03T14:53:56;76818.00;;;-144.37;67.11
36258;BME280;22294;52.044;4.582;2022-10-03T14:56:26;76811.88;;;-144.37;67.64
36258;BME280;22294;52.044;4.582;2022-10-03T14:58:54;76799.59;;;-144.37;67.53
36258;BME280;22294;52.044;4.582;2022-10-03T15:01:24;76795.50;;;-144.37;67.06
36258;BME280;22294;52.044;4.582;2022-10-03T15:06:37;76781.19;;;-144.37;66.92
36258;BME280;22294;52.044;4.582;2022-10-03T15:09:24;76787.31;;;-144.37;66.56
36258;BME280;22294;52.044;4.582;2022-10-03T15:12:14;76791.41;;;-144.37;65.70
36258;BME280;22294;52.044;4.582;2022-10-03T15:14:47;76783.22;;;-144.37;65.55
36258;BME280;22294;52.044;4.582;2022-10-03T15:17:25;76787.31;;;-144.37;65.97
36258;BME280;22294;52.044;4.582;2022-10-03T15:19:53;76787.31;;;-144.37;66.24
36258;BME280;22294;52.044;4.582;2022-10-03T15:22:32;76795.50;;;-144.37;65.94
36258;BME280;22294;52.044;4.582;2022-10-03T15:25:07;76791.41;;;-144.37;65.87
36258;BME280;22294;52.044;4.582;2022-10-03T15:27:39;76801.66;;;-144.37;65.83
36258;BME280;22294;52.044;4.582;2022-10-03T15:30:06;76809.81;;;-144.37;65.78
36258;BME280;22294;52.044;4.582;2022-10-03T15:32:40;76811.88;;;-144.37;66.67
36258;BME280;22294;52.044;4.582;2022-10-03T15:35:17;76813.91;;;-144.37;68.16
36258;BME280;22294;52.044;4.582;2022-10-03T15:37:45;76815.97;;;-144.37;68.08
36258;BME280;22294;52.044;4.582;2022-10-03T15:40:22;76822.09;;;-144.37;67.81
36258;BME280;22294;52.044;4.582;2022-10-03T15:43:30;76811.88;;;-144.37;67.82
36258;BME280;22294;52.044;4.582;2022-10-03T15:45:58;76815.97;;;-144.37;67.70
36258;BME280;22294;52.044;4.582;2022-10-03T15:48:26;76809.81;;;-144.37;68.03
36258;BME280;22294;52.044;4.582;2022-10-03T15:50:55;76815.97;;;-144.37;68.37
36258;BME280;22294;52.044;4.582;2022-10-03T15:53:24;76811.88;;;-144.37;67.93
36258;BME280;22294;52.044;4.582;2022-10-03T15:56:07;76809.81;;;-144.37;67.59
36258;BME280;22294;52.044;4.582;2022-10-03T15:58:35;76815.97;;;-144.37;67.14
36258;BME280;22294;52.044;4.582;2022-10-03T16:01:09;76818.00;;;-144.37;67.65
36258;BME280;22294;52.044;4.582;2022-10-03T16:03:54;76822.09;;;-144.37;69.05
36258;BME280;22294;52.044;4.582;2022-10-03T16:06:38;76832.31;;;-144.37;69.66
36258;BME280;22294;52.044;4.582;2022-10-03T16:09:18;76850.75;;;-144.37;70.72
36258;BME280;22294;52.044;4.582;2022-10-03T16:14:42;76869.16;;;-144.37;72.53
36258;BME280;22294;52.044;4.582;2022-10-03T16:17:19;76879.38;;;-144.37;73.74
36258;BME280;22294;52.044;4.582;2022-10-03T16:20:16;76899.81;;;-144.37;74.91
36258;BME280;22294;52.044;4.582;2022-10-03T16:22:48;76899.81;;;-144.37;74.83
36258;BME280;22294;52.044;4.582;2022-10-03T16:25:18;76901.88;;;-144.37;75.40
36258;BME280;22294;52.044;4.582;2022-10-03T16:27:56;76905.97;;;-144.37;76.63
36258;BME280;22294;52.044;4.582;2022-10-03T16:30:26;76903.91;;;-144.37;76.76
36258;BME280;22294;52.044;4.582;2022-10-03T16:35:35;76912.09;;;-144.37;78.10
36258;BME280;22294;52.044;4.582;2022-10-03T16:38:08;76914.16;;;-144.37;78.56
36258;BME280;22294;52.044;4.582;2022-10-03T16:40:41;76916.19;;;-144.37;78.48
36258;BME280;22294;52.044;4.582;2022-10-03T16:43:06;76922.34;;;-144.37;78.60
36258;BME280;22294;52.044;4.582;2022-10-03T16:45:39;76926.41;;;-144.37;78.76
36258;BME280;22294;52.044;4.582;2022-10-03T16:48:12;76932.56;;;-144.37;78.97
36258;BME280;22294;52.044;4.582;2022-10-03T16:51:01;76928.47;;;-144.37;78.97
36258;BME280;22294;52.044;4.582;2022-10-03T16:53:27;76938.69;;;-144.37;78.97
36258;BME280;22294;52.044;4.582;2022-10-03T16:55:57;76940.75;;;-144.37;79.20
36258;BME280;22294;52.044;4.582;2022-10-03T16:58:31;76938.69;;;-144.37;78.56
36258;BME280;22294;52.044;4.582;2022-10-03T17:01:00;76940.75;;;-144.37;78.97
36258;BME280;22294;52.044;4.582;2022-10-03T17:03:45;76955.06;;;-144.37;79.44
36258;BME280;22294;52.044;4.582;2022-10-03T17:06:20;76959.16;;;-144.37;79.96
36258;BME280;22294;52.044;4.582;2022-10-03T17:08:50;76967.34;;;-144.37;81.01
36258;BME280;22294;52.044;4.582;2022-10-03T17:11:18;76971.44;;;-144.37;81.58
36258;BME280;22294;52.044;4.582;2022-10-03T17:13:48;76981.66;;;-144.37;82.12
36258;BME280;22294;52.044;4.582;2022-10-03T17:16:26;76987.78;;;-144.37;81.20
36258;BME280;22294;52.044;4.582;2022-10-03T17:19:14;76987.78;;;-144.37;80.37
36258;BME280;22294;52.044;4.582;2022-10-03T17:21:46;76993.94;;;-144.37;80.48
36258;BME280;22294;52.044;4.582;2022-10-03T17:24:41;76995.97;;;-144.37;80.50
36258;BME280;22294;52.044;4.582;2022-10-03T17:27:19;76995.97;;;-144.37;81.16
36258;BME280;22294;52.044;4.582;2022-10-03T17:29:55;77014.38;;;-144.37;82.15
36258;BME280;22294;52.044;4.582;2022-10-03T17:32:34;77020.50;;;-144.37;82.48
36258;BME280;22294;52.044;4.582;2022-10-03T17:35:09;77020.50;;;-144.37;82.32
36258;BME280;22294;52.044;4.582;2022-10-03T17:40:22;77024.59;;;-144.37;81.99
36258;BME280;22294;52.044;4.582;2022-10-03T17:43:01;77030.75;;;-144.37;82.24
36258;BME280;22294;52.044;4.582;2022-10-03T17:45:37;77032.78;;;-144.37;82.05
36258;BME280;22294;52.044;4.582;2022-10-03T17:48:13;77036.88;;;-144.37;82.06
36258;BME280;22294;52.044;4.582;2022-10-03T17:53:35;77043.03;;;-144.37;82.78
36258;BME280;22294;52.044;4.582;2022-10-03T17:56:09;77051.19;;;-144.37;83.22
36258;BME280;22294;52.044;4.582;2022-10-03T17:58:36;77061.44;;;-144.37;83.08
36258;BME280;22294;52.044;4.582;2022-10-03T18:01:11;77063.47;;;-144.37;83.29
36258;BME280;22294;52.044;4.582;2022-10-03T18:03:49;77071.66;;;-144.37;83.66
36258;BME280;22294;52.044;4.582;2022-10-03T18:09:28;77073.69;;;-144.37;83.99
36258;BME280;22294;52.044;4.582;2022-10-03T18:12:02;77081.88;;;-144.37;83.81
36258;BME280;22294;52.044;4.582;2022-10-03T18:14:39;77090.06;;;-144.37;83.60
36258;BME280;22294;52.044;4.582;2022-10-03T18:17:31;77079.84;;;-144.37;83.41
36258;BME280;22294;52.044;4.582;2022-10-03T18:23:02;77081.88;;;-144.37;83.40
36258;BME280;22294;52.044;4.582;2022-10-03T18:25:45;77075.75;;;-144.37;82.94
36258;BME280;22294;52.044;4.582;2022-10-03T18:28:42;77061.44;;;-144.37;81.39
36258;BME280;22294;52.044;4.582;2022-10-03T18:31:15;77061.44;;;-144.37;80.89
36258;BME280;22294;52.044;4.582;2022-10-03T18:33:57;77055.28;;;-144.37;80.28
36258;BME280;22294;52.044;4.582;2022-10-03T18:36:36;77055.28;;;-144.37;80.80
36258;BME280;22294;52.044;4.582;2022-10-03T18:39:27;77055.28;;;-144.37;81.21
36258;BME280;22294;52.044;4.582;2022-10-03T18:41:56;77067.56;;;-144.37;81.56
36258;BME280;22294;52.044;4.582;2022-10-03T18:44:28;77071.66;;;-144.37;82.09
36258;BME280;22294;52.044;4.582;2022-10-03T18:47:24;77073.69;;;-144.37;82.60
36258;BME280;22294;52.044;4.582;2022-10-03T18:50:04;77075.75;;;-144.37;82.77
36258;BME280;22294;52.044;4.582;2022-10-03T18:52:46;77075.75;;;-144.37;83.08
36258;BME280;22294;52.044;4.582;2022-10-03T18:55:28;77075.75;;;-144.37;83.46
36258;BME280;22294;52.044;4.582;2022-10-03T18:58:03;77077.78;;;-144.37;83.61
36258;BME280;22294;52.044;4.582;2022-10-03T19:00:38;77073.69;;;-144.37;83.32
36258;BME280;22294;52.044;4.582;2022-10-03T19:03:14;77075.75;;;-144.37;83.39
36258;BME280;22294;52.044;4.582;2022-10-03T19:05:55;77075.75;;;-144.37;83.31
36258;BME280;22294;52.044;4.582;2022-10-03T19:08:39;77071.66;;;-144.37;83.58
36258;BME280;22294;52.044;4.582;2022-10-03T19:13:57;77075.75;;;-144.37;84.22
36258;BME280;22294;52.044;4.582;2022-10-03T19:16:39;77065.53;;;-144.37;84.41
36258;BME280;22294;52.044;4.582;2022-10-03T19:21:49;77061.44;;;-144.37;83.76
36258;BME280;22294;52.044;4.582;2022-10-03T19:24:26;77061.44;;;-144.37;83.82
36258;BME280;22294;52.044;4.582;2022-10-03T19:27:00;77061.44;;;-144.37;83.71
36258;BME280;22294;52.044;4.582;2022-10-03T19:29:39;77065.53;;;-144.37;83.60
36258;BME280;22294;52.044;4.582;2022-10-03T19:34:43;77071.66;;;-144.37;84.07
36258;BME280;22294;52.044;4.582;2022-10-03T19:37:17;77067.56;;;-144.37;84.18
36258;BME280;22294;52.044;4.582;2022-10-03T19:39:43;77067.56;;;-144.37;84.09
36258;BME280;22294;52.044;4.582;2022-10-03T19:42:34;77075.75;;;-144.37;84.56
36258;BME280;22294;52.044;4.582;2022-10-03T19:45:04;77077.78;;;-144.37;84.77
36258;BME280;22294;52.044;4.582;2022-10-03T19:47:37;77081.88;;;-144.37;84.61
36258;BME280;22294;52.044;4.582;2022-10-03T19:50:12;77079.84;;;-144.37;85.01
36258;BME280;22294;52.044;4.582;2022-10-03T19:52:43;77083.94;;;-144.37;85.01
36258;BME280;22294;52.044;4.582;2022-10-03T19:55:21;77090.06;;;-144.37;85.13
36258;BME280;22294;52.044;4.582;2022-10-03T19:57:54;77085.97;;;-144.37;85.24
36258;BME280;22294;52.044;4.582;2022-10-03T20:00:24;77081.88;;;-144.37;85.43
36258;BME280;22294;52.044;4.582;2022-10-03T20:02:58;77083.94;;;-144.37;85.28
36258;BME280;22294;52.044;4.582;2022-10-03T20:05:34;77083.94;;;-144.37;85.00
36258;BME280;22294;52.044;4.582;2022-10-03T20:13:14;77096.22;;;-144.37;85.73
36258;BME280;22294;52.044;4.582;2022-10-03T20:15:44;77096.22;;;-144.37;85.75
36258;BME280;22294;52.044;4.582;2022-10-03T20:18:17;77092.13;;;-144.37;85.63
36258;BME280;22294;52.044;4.582;2022-10-03T20:20:47;77092.13;;;-144.37;85.46
36258;BME280;22294;52.044;4.582;2022-10-03T20:23:13;77090.06;;;-144.37;85.43
36258;BME280;22294;52.044;4.582;2022-10-03T20:25:52;77090.06;;;-144.37;85.43
36258;BME280;22294;52.044;4.582;2022-10-03T20:31:07;77077.78;;;-144.37;84.84
36258;BME280;22294;52.044;4.582;2022-10-03T20:33:34;77081.88;;;-144.37;84.49
36258;BME280;22294;52.044;4.582;2022-10-03T20:36:27;77077.78;;;-144.37;84.40
36258;BME280;22294;52.044;4.582;2022-10-03T20:38:59;77079.84;;;-144.37;84.49
36258;BME280;22294;52.044;4.582;2022-10-03T20:44:11;77085.97;;;-144.37;84.33
36258;BME280;22294;52.044;4.582;2022-10-03T20:46:41;77090.06;;;-144.37;84.71
36258;BME280;22294;52.044;4.582;2022-10-03T20:49:33;77090.06;;;-144.37;85.21
36258;BME280;22294;52.044;4.582;2022-10-03T20:52:06;77100.28;;;-144.37;85.04
36258;BME280;22294;52.044;4.582;2022-10-03T20:54:46;77102.34;;;-144.37;85.01
36258;BME280;22294;52.044;4.582;2022-10-03T20:57:22;77100.28;;;-144.37;85.11
36258;BME280;22294;52.044;4.582;2022-10-03T21:00:16;77104.38;;;-144.37;84.87
36258;BME280;22294;52.044;4.582;2022-10-03T21:02:58;77110.53;;;-144.37;84.57
36258;BME280;22294;52.044;4.582;2022-10-03T21:05:34;77110.53;;;-144.37;84.96
36258;BME280;22294;52.044;4.582;2022-10-03T21:08:03;77108.47;;;-144.37;84.61
36258;BME280;22294;52.044;4.582;2022-10-03T21:10:35;77112.56;;;-144.37;84.46
36258;BME280;22294;52.044;4.582;2022-10-03T21:13:06;77122.81;;;-144.37;84.51
36258;BME280;22294;52.044;4.582;2022-10-03T21:15:39;77116.66;;;-144.37;84.68
36258;BME280;22294;52.044;4.582;2022-10-03T21:18:18;77114.63;;;-144.37;84.84
36258;BME280;22294;52.044;4.582;2022-10-03T21:20:45;77122.81;;;-144.37;84.90
36258;BME280;22294;52.044;4.582;2022-10-03T21:23:21;77126.88;;;-144.37;85.50
36258;BME280;22294;52.044;4.582;2022-10-03T21:25:49;77135.06;;;-144.37;85.88
36258;BME280;22294;52.044;4.582;2022-10-03T21:28:22;77145.31;;;-144.37;86.62
36258;BME280;22294;52.044;4.582;2022-10-03T21:33:49;77151.44;;;-144.37;86.51
36258;BME280;22294;52.044;4.582;2022-10-03T21:36:25;77147.34;;;-144.37;86.92
36258;BME280;22294;52.044;4.582;2022-10-03T21:39:02;77143.25;;;-144.37;87.37
36258;BME280;22294;52.044;4.582;2022-10-03T21:41:46;77143.25;;;-144.37;87.75
36258;BME280;22294;52.044;4.582;2022-10-03T21:44:26;77135.06;;;-144.37;87.95
36258;BME280;22294;52.044;4.582;2022-10-03T21:47:23;77135.06;;;-144.37;87.67
36258;BME280;22294;52.044;4.582;2022-10-03T21:50:02;77126.88;;;-144.37;87.89
36258;BME280;22294;52.044;4.582;2022-10-03T21:59:14;77110.53;;;-144.37;86.63
36258;BME280;22294;52.044;4.582;2022-10-03T22:02:00;77106.44;;;-144.37;87.06
36258;BME280;22294;52.044;4.582;2022-10-03T22:04:48;77100.28;;;-144.37;87.08
36258;BME280;22294;52.044;4.582;2022-10-03T22:07:25;77106.44;;;-144.37;87.09
36258;BME280;22294;52.044;4.582;2022-10-03T22:09:54;77100.28;;;-144.37;87.22
36258;BME280;22294;52.044;4.582;2022-10-03T22:12:21;77098.25;;;-144.37;87.41
36258;BME280;22294;52.044;4.582;2022-10-03T22:14:54;77102.34;;;-144.37;87.15
36258;BME280;22294;52.044;4.582;2022-10-03T22:17:34;77108.47;;;-144.37;87.40
36258;BME280;22294;52.044;4.582;2022-10-03T22:20:15;77102.34;;;-144.37;87.43
36258;BME280;22294;52.044;4.582;2022-10-03T22:25:56;77092.13;;;-144.37;87.60